METAR AND TAF INFORMATION
METAR FOR KLOM
ADDS - METARS form results

(1532 UTC 14 August 2022)
Data provider http://aviationweather.gov/metar/data/
 
METAR text: KLOM 141515Z AUTO 19003KT 10SM CLR 25/14 A3008 RMK AO2 T02490139
Conditions at: KLOM (PHILLY WINGS F , PA, US) observed 1515 UTC 14 August 2022
Temperature: 24.9°C (77°F)
Dewpoint: 13.9°C (57°F) [RH = 50%]
Pressure (altimeter): 30.08 inches Hg (1018.7 mb)
Winds: from the S (190 degrees) at 3 MPH (3 knots; 1.5 m/s)
Visibility: 10 or more miles (16+ km)
Ceiling: at least 12,000 feet AGL
Clouds: sky clear below 12,000 feet AGL
Weather: automated observation with no human augmentation;
there may or may not be significant weather present at this time

METAR text: KLOM 141455Z AUTO 25003KT 10SM CLR 24/14 A3008 RMK AO2 T02420142
Conditions at: KLOM (PHILLY WINGS F , PA, US) observed 1455 UTC 14 August 2022
Temperature: 24.2°C (76°F)
Dewpoint: 14.2°C (58°F) [RH = 54%]
Pressure (altimeter): 30.08 inches Hg (1018.7 mb)
Winds: from the WSW (250 degrees) at 3 MPH (3 knots; 1.5 m/s)
Visibility: 10 or more miles (16+ km)
Ceiling: at least 12,000 feet AGL
Clouds: sky clear below 12,000 feet AGL
Weather: automated observation with no human augmentation;
there may or may not be significant weather present at this time

METAR text: KLOM 141435Z AUTO 23005KT 10SM CLR 24/14 A3008 RMK AO2 T02400145
Conditions at: KLOM (PHILLY WINGS F , PA, US) observed 1435 UTC 14 August 2022
Temperature: 24.0°C (75°F)
Dewpoint: 14.5°C (58°F) [RH = 55%]
Pressure (altimeter): 30.08 inches Hg (1018.7 mb)
Winds: from the SW (230 degrees) at 6 MPH (5 knots; 2.6 m/s)
Visibility: 10 or more miles (16+ km)
Ceiling: at least 12,000 feet AGL
Clouds: sky clear below 12,000 feet AGL
Weather: automated observation with no human augmentation;
there may or may not be significant weather present at this time

 AIRPORT MAP

 RUNWAY INFORMATION
Runway 06 Runway length 3700 ft Runway width 75 ft
Runway elevation 301 ft Runway displaced threshold 170 ft Runway heading 53
Runway 24 Runway length 3700 ft Runway width 75 ft
Runway elevation 280 ft Runway displaced threshold 0 ft Runway heading 233

 AIRPORT FREQUENCIES
Type A/D Name PHILADELPH Frequency 126.85 MHZ
Type AWOS Name AWOS 3 Frequency 118.925 MHZ
Type CLD Name CLNC DEL Frequency 118.55 MHZ
Type UNIC Name CTAF/UNICO Frequency 123 MHZ

 AIRPORT NEAR NAVIGATION AIDS

-